sensor_id;sensor_type;location;lat;lon;timestamp;P1;durP1;ratioP1;P2;durP2;ratioP2
31786;SDS011;18356;52.380;9.820;2022-11-14T00:00:29;83.77;;;38.03;;
31786;SDS011;18356;52.380;9.820;2022-11-14T00:02:59;70.67;;;33.33;;
31786;SDS011;18356;52.380;9.820;2022-11-14T00:05:25;74.10;;;35.37;;
31786;SDS011;18356;52.380;9.820;2022-11-14T00:07:51;79.63;;;35.97;;
31786;SDS011;18356;52.380;9.820;2022-11-14T00:10:18;76.80;;;33.63;;
31786;SDS011;18356;52.380;9.820;2022-11-14T00:12:44;72.57;;;34.40;;
31786;SDS011;18356;52.380;9.820;2022-11-14T00:15:10;69.50;;;33.57;;
31786;SDS011;18356;52.380;9.820;2022-11-14T00:17:37;72.33;;;34.23;;
31786;SDS011;18356;52.380;9.820;2022-11-14T00:20:03;76.80;;;34.77;;
31786;SDS011;18356;52.380;9.820;2022-11-14T00:22:29;77.93;;;34.77;;
31786;SDS011;18356;52.380;9.820;2022-11-14T00:24:55;77.33;;;34.63;;
31786;SDS011;18356;52.380;9.820;2022-11-14T00:27:21;74.30;;;34.97;;
31786;SDS011;18356;52.380;9.820;2022-11-14T00:29:47;76.33;;;35.67;;
31786;SDS011;18356;52.380;9.820;2022-11-14T00:32:13;71.07;;;34.13;;
31786;SDS011;18356;52.380;9.820;2022-11-14T00:34:39;73.67;;;34.43;;
31786;SDS011;18356;52.380;9.820;2022-11-14T00:37:05;72.63;;;33.87;;
31786;SDS011;18356;52.380;9.820;2022-11-14T00:39:31;78.27;;;35.90;;
31786;SDS011;18356;52.380;9.820;2022-11-14T00:41:57;77.03;;;33.80;;
31786;SDS011;18356;52.380;9.820;2022-11-14T00:44:23;72.63;;;34.33;;
31786;SDS011;18356;52.380;9.820;2022-11-14T00:46:49;71.57;;;33.83;;
31786;SDS011;18356;52.380;9.820;2022-11-14T00:49:15;66.27;;;32.03;;
31786;SDS011;18356;52.380;9.820;2022-11-14T00:51:41;66.83;;;32.83;;
31786;SDS011;18356;52.380;9.820;2022-11-14T00:54:07;68.70;;;30.83;;
31786;SDS011;18356;52.380;9.820;2022-11-14T00:56:33;71.23;;;33.93;;
31786;SDS011;18356;52.380;9.820;2022-11-14T00:58:59;72.47;;;33.07;;
31786;SDS011;18356;52.380;9.820;2022-11-14T01:01:25;67.60;;;33.20;;
31786;SDS011;18356;52.380;9.820;2022-11-14T01:03:51;67.33;;;33.47;;
31786;SDS011;18356;52.380;9.820;2022-11-14T01:06:18;68.40;;;34.60;;
31786;SDS011;18356;52.380;9.820;2022-11-14T01:08:44;74.07;;;33.90;;
31786;SDS011;18356;52.380;9.820;2022-11-14T01:11:11;67.60;;;34.60;;
31786;SDS011;18356;52.380;9.820;2022-11-14T01:13:37;64.83;;;32.63;;
31786;SDS011;18356;52.380;9.820;2022-11-14T01:16:03;71.20;;;34.07;;
31786;SDS011;18356;52.380;9.820;2022-11-14T01:18:30;71.53;;;34.37;;
31786;SDS011;18356;52.380;9.820;2022-11-14T01:20:56;69.13;;;33.67;;
31786;SDS011;18356;52.380;9.820;2022-11-14T01:23:22;67.13;;;33.13;;
31786;SDS011;18356;52.380;9.820;2022-11-14T01:25:48;70.10;;;34.63;;
31786;SDS011;18356;52.380;9.820;2022-11-14T01:28:15;66.67;;;33.10;;
31786;SDS011;18356;52.380;9.820;2022-11-14T01:30:41;76.40;;;34.97;;
31786;SDS011;18356;52.380;9.820;2022-11-14T01:33:07;69.00;;;34.63;;
31786;SDS011;18356;52.380;9.820;2022-11-14T01:35:34;75.33;;;35.17;;
31786;SDS011;18356;52.380;9.820;2022-11-14T01:38:00;74.67;;;34.73;;
31786;SDS011;18356;52.380;9.820;2022-11-14T01:40:26;69.47;;;32.93;;
31786;SDS011;18356;52.380;9.820;2022-11-14T01:48:27;73.57;;;33.80;;
31786;SDS011;18356;52.380;9.820;2022-11-14T01:50:55;68.17;;;33.07;;
31786;SDS011;18356;52.380;9.820;2022-11-14T01:53:23;72.47;;;34.43;;
31786;SDS011;18356;52.380;9.820;2022-11-14T01:55:49;73.20;;;33.60;;
31786;SDS011;18356;52.380;9.820;2022-11-14T01:58:15;72.83;;;34.40;;
31786;SDS011;18356;52.380;9.820;2022-11-14T02:00:42;80.90;;;36.43;;
31786;SDS011;18356;52.380;9.820;2022-11-14T02:03:09;76.83;;;33.57;;
31786;SDS011;18356;52.380;9.820;2022-11-14T02:05:36;76.87;;;35.10;;
31786;SDS011;18356;52.380;9.820;2022-11-14T02:08:02;71.60;;;35.87;;
31786;SDS011;18356;52.380;9.820;2022-11-14T02:10:28;77.33;;;35.80;;
31786;SDS011;18356;52.380;9.820;2022-11-14T02:12:54;71.00;;;33.73;;
31786;SDS011;18356;52.380;9.820;2022-11-14T02:15:20;75.37;;;36.40;;
31786;SDS011;18356;52.380;9.820;2022-11-14T02:17:47;76.80;;;36.13;;
31786;SDS011;18356;52.380;9.820;2022-11-14T02:22:39;75.13;;;35.17;;
31786;SDS011;18356;52.380;9.820;2022-11-14T02:25:06;79.70;;;36.57;;
31786;SDS011;18356;52.380;9.820;2022-11-14T02:27:32;69.13;;;33.70;;
31786;SDS011;18356;52.380;9.820;2022-11-14T02:30:03;78.73;;;36.23;;
31786;SDS011;18356;52.380;9.820;2022-11-14T02:32:29;75.37;;;34.73;;
31786;SDS011;18356;52.380;9.820;2022-11-14T02:34:55;74.47;;;35.50;;
31786;SDS011;18356;52.380;9.820;2022-11-14T02:37:21;69.87;;;35.27;;
31786;SDS011;18356;52.380;9.820;2022-11-14T02:39:47;68.93;;;35.07;;
31786;SDS011;18356;52.380;9.820;2022-11-14T02:42:13;76.70;;;36.13;;
31786;SDS011;18356;52.380;9.820;2022-11-14T02:44:39;77.03;;;36.17;;
31786;SDS011;18356;52.380;9.820;2022-11-14T02:47:05;76.70;;;36.27;;
31786;SDS011;18356;52.380;9.820;2022-11-14T02:49:31;74.13;;;35.60;;
31786;SDS011;18356;52.380;9.820;2022-11-14T02:51:57;69.53;;;33.30;;
31786;SDS011;18356;52.380;9.820;2022-11-14T02:54:23;72.30;;;33.87;;
31786;SDS011;18356;52.380;9.820;2022-11-14T02:56:49;77.83;;;36.93;;
31786;SDS011;18356;52.380;9.820;2022-11-14T02:59:15;64.63;;;33.67;;
31786;SDS011;18356;52.380;9.820;2022-11-14T03:01:41;71.33;;;34.33;;
31786;SDS011;18356;52.380;9.820;2022-11-14T03:04:07;69.00;;;34.43;;
31786;SDS011;18356;52.380;9.820;2022-11-14T03:06:34;66.77;;;32.63;;
31786;SDS011;18356;52.380;9.820;2022-11-14T03:09:00;75.00;;;34.77;;
31786;SDS011;18356;52.380;9.820;2022-11-14T03:11:26;74.40;;;35.30;;
31786;SDS011;18356;52.380;9.820;2022-11-14T03:13:52;67.73;;;33.50;;
31786;SDS011;18356;52.380;9.820;2022-11-14T03:16:18;69.97;;;34.30;;
31786;SDS011;18356;52.380;9.820;2022-11-14T03:18:44;67.17;;;33.40;;
31786;SDS011;18356;52.380;9.820;2022-11-14T03:21:14;69.77;;;33.77;;
31786;SDS011;18356;52.380;9.820;2022-11-14T03:23:40;69.60;;;34.40;;
31786;SDS011;18356;52.380;9.820;2022-11-14T03:26:07;76.33;;;34.30;;
31786;SDS011;18356;52.380;9.820;2022-11-14T03:28:34;71.77;;;33.70;;
31786;SDS011;18356;52.380;9.820;2022-11-14T03:31:00;71.30;;;34.83;;
31786;SDS011;18356;52.380;9.820;2022-11-14T03:33:27;70.93;;;33.90;;
31786;SDS011;18356;52.380;9.820;2022-11-14T03:35:53;69.30;;;33.63;;
31786;SDS011;18356;52.380;9.820;2022-11-14T03:38:19;72.10;;;35.10;;
31786;SDS011;18356;52.380;9.820;2022-11-14T03:40:51;70.87;;;34.63;;
31786;SDS011;18356;52.380;9.820;2022-11-14T03:43:18;82.20;;;37.13;;
31786;SDS011;18356;52.380;9.820;2022-11-14T03:45:44;71.40;;;35.30;;
31786;SDS011;18356;52.380;9.820;2022-11-14T03:48:11;75.50;;;36.33;;
31786;SDS011;18356;52.380;9.820;2022-11-14T03:50:37;83.43;;;36.83;;
31786;SDS011;18356;52.380;9.820;2022-11-14T03:53:03;70.60;;;34.03;;
31786;SDS011;18356;52.380;9.820;2022-11-14T03:55:30;74.27;;;35.27;;
31786;SDS011;18356;52.380;9.820;2022-11-14T03:57:56;80.27;;;36.70;;
31786;SDS011;18356;52.380;9.820;2022-11-14T04:00:22;77.77;;;37.20;;
31786;SDS011;18356;52.380;9.820;2022-11-14T04:02:48;73.13;;;34.77;;
31786;SDS011;18356;52.380;9.820;2022-11-14T04:05:14;77.40;;;37.77;;
31786;SDS011;18356;52.380;9.820;2022-11-14T04:07:40;78.83;;;34.87;;
31786;SDS011;18356;52.380;9.820;2022-11-14T04:10:06;80.03;;;36.10;;
31786;SDS011;18356;52.380;9.820;2022-11-14T04:12:32;75.97;;;34.47;;
31786;SDS011;18356;52.380;9.820;2022-11-14T04:14:58;78.03;;;35.47;;
31786;SDS011;18356;52.380;9.820;2022-11-14T04:17:24;76.83;;;35.07;;
31786;SDS011;18356;52.380;9.820;2022-11-14T04:19:50;76.83;;;35.57;;
31786;SDS011;18356;52.380;9.820;2022-11-14T04:22:16;73.87;;;35.20;;
31786;SDS011;18356;52.380;9.820;2022-11-14T04:24:42;77.07;;;35.10;;
31786;SDS011;18356;52.380;9.820;2022-11-14T04:27:08;75.70;;;35.30;;
31786;SDS011;18356;52.380;9.820;2022-11-14T04:29:34;77.73;;;34.37;;
31786;SDS011;18356;52.380;9.820;2022-11-14T04:32:00;76.10;;;34.83;;
31786;SDS011;18356;52.380;9.820;2022-11-14T04:34:26;72.97;;;34.13;;
31786;SDS011;18356;52.380;9.820;2022-11-14T04:36:52;73.33;;;34.83;;
31786;SDS011;18356;52.380;9.820;2022-11-14T04:39:18;75.67;;;34.97;;
31786;SDS011;18356;52.380;9.820;2022-11-14T04:41:44;77.53;;;34.53;;
31786;SDS011;18356;52.380;9.820;2022-11-14T04:44:10;85.83;;;38.20;;
31786;SDS011;18356;52.380;9.820;2022-11-14T04:46:36;85.80;;;37.97;;
31786;SDS011;18356;52.380;9.820;2022-11-14T04:49:02;100.50;;;39.90;;
31786;SDS011;18356;52.380;9.820;2022-11-14T04:51:28;85.67;;;36.60;;
31786;SDS011;18356;52.380;9.820;2022-11-14T04:53:54;91.27;;;38.60;;
31786;SDS011;18356;52.380;9.820;2022-11-14T04:56:20;92.20;;;37.67;;
31786;SDS011;18356;52.380;9.820;2022-11-14T04:58:47;92.17;;;38.43;;
31786;SDS011;18356;52.380;9.820;2022-11-14T05:01:14;91.53;;;38.10;;
31786;SDS011;18356;52.380;9.820;2022-11-14T05:03:40;89.43;;;37.87;;
31786;SDS011;18356;52.380;9.820;2022-11-14T05:06:06;82.23;;;35.37;;
31786;SDS011;18356;52.380;9.820;2022-11-14T05:08:32;82.47;;;36.47;;
31786;SDS011;18356;52.380;9.820;2022-11-14T05:10:58;79.13;;;36.83;;
31786;SDS011;18356;52.380;9.820;2022-11-14T05:13:24;91.00;;;36.40;;
31786;SDS011;18356;52.380;9.820;2022-11-14T05:15:50;84.53;;;37.67;;
31786;SDS011;18356;52.380;9.820;2022-11-14T05:18:16;85.00;;;37.20;;
31786;SDS011;18356;52.380;9.820;2022-11-14T05:20:42;85.73;;;35.87;;
31786;SDS011;18356;52.380;9.820;2022-11-14T05:23:18;81.73;;;34.83;;
31786;SDS011;18356;52.380;9.820;2022-11-14T05:25:45;92.40;;;37.57;;
31786;SDS011;18356;52.380;9.820;2022-11-14T05:28:11;84.40;;;37.67;;
31786;SDS011;18356;52.380;9.820;2022-11-14T05:30:37;76.67;;;35.30;;
31786;SDS011;18356;52.380;9.820;2022-11-14T05:33:03;82.63;;;34.47;;
31786;SDS011;18356;52.380;9.820;2022-11-14T05:35:29;85.87;;;35.20;;
31786;SDS011;18356;52.380;9.820;2022-11-14T05:37:55;82.10;;;36.67;;
31786;SDS011;18356;52.380;9.820;2022-11-14T05:40:21;86.33;;;36.73;;
31786;SDS011;18356;52.380;9.820;2022-11-14T05:42:47;86.80;;;36.27;;
31786;SDS011;18356;52.380;9.820;2022-11-14T05:45:13;78.00;;;34.10;;
31786;SDS011;18356;52.380;9.820;2022-11-14T05:47:39;77.63;;;34.97;;
31786;SDS011;18356;52.380;9.820;2022-11-14T05:50:05;81.83;;;35.80;;
31786;SDS011;18356;52.380;9.820;2022-11-14T05:52:31;75.43;;;34.83;;
31786;SDS011;18356;52.380;9.820;2022-11-14T05:54:58;81.73;;;34.47;;
31786;SDS011;18356;52.380;9.820;2022-11-14T05:57:23;79.30;;;34.17;;
31786;SDS011;18356;52.380;9.820;2022-11-14T05:59:50;86.07;;;36.97;;
31786;SDS011;18356;52.380;9.820;2022-11-14T06:02:16;80.23;;;34.33;;
31786;SDS011;18356;52.380;9.820;2022-11-14T06:04:42;79.10;;;35.03;;
31786;SDS011;18356;52.380;9.820;2022-11-14T06:07:08;70.70;;;33.23;;
31786;SDS011;18356;52.380;9.820;2022-11-14T06:09:34;73.70;;;33.50;;
31786;SDS011;18356;52.380;9.820;2022-11-14T06:12:00;79.67;;;34.83;;
31786;SDS011;18356;52.380;9.820;2022-11-14T06:14:30;74.07;;;32.83;;
31786;SDS011;18356;52.380;9.820;2022-11-14T06:16:56;74.70;;;33.23;;
31786;SDS011;18356;52.380;9.820;2022-11-14T06:19:21;76.80;;;32.20;;
31786;SDS011;18356;52.380;9.820;2022-11-14T06:21:47;73.73;;;32.87;;
31786;SDS011;18356;52.380;9.820;2022-11-14T06:24:14;79.73;;;35.13;;
31786;SDS011;18356;52.380;9.820;2022-11-14T06:26:40;76.43;;;32.67;;
31786;SDS011;18356;52.380;9.820;2022-11-14T06:29:06;82.50;;;34.83;;
31786;SDS011;18356;52.380;9.820;2022-11-14T06:31:32;88.40;;;37.20;;
31786;SDS011;18356;52.380;9.820;2022-11-14T06:33:58;83.53;;;36.47;;
31786;SDS011;18356;52.380;9.820;2022-11-14T06:36:24;90.87;;;37.53;;
31786;SDS011;18356;52.380;9.820;2022-11-14T06:38:50;84.83;;;36.30;;
31786;SDS011;18356;52.380;9.820;2022-11-14T06:41:18;84.63;;;35.40;;
31786;SDS011;18356;52.380;9.820;2022-11-14T06:43:45;80.93;;;35.23;;
31786;SDS011;18356;52.380;9.820;2022-11-14T06:46:13;88.70;;;37.53;;
31786;SDS011;18356;52.380;9.820;2022-11-14T06:48:39;85.23;;;37.80;;
31786;SDS011;18356;52.380;9.820;2022-11-14T06:51:05;81.53;;;36.13;;
31786;SDS011;18356;52.380;9.820;2022-11-14T06:53:33;83.33;;;34.50;;
31786;SDS011;18356;52.380;9.820;2022-11-14T06:58:26;77.57;;;35.73;;
31786;SDS011;18356;52.380;9.820;2022-11-14T07:00:52;79.73;;;35.13;;
31786;SDS011;18356;52.380;9.820;2022-11-14T07:03:18;82.27;;;35.90;;
31786;SDS011;18356;52.380;9.820;2022-11-14T07:05:44;85.63;;;36.47;;
31786;SDS011;18356;52.380;9.820;2022-11-14T07:08:10;85.50;;;35.17;;
31786;SDS011;18356;52.380;9.820;2022-11-14T07:10:36;80.57;;;34.43;;
31786;SDS011;18356;52.380;9.820;2022-11-14T07:13:02;82.73;;;36.70;;
31786;SDS011;18356;52.380;9.820;2022-11-14T07:15:28;87.07;;;36.43;;
31786;SDS011;18356;52.380;9.820;2022-11-14T07:17:54;83.63;;;36.33;;
31786;SDS011;18356;52.380;9.820;2022-11-14T07:20:20;91.60;;;36.17;;
31786;SDS011;18356;52.380;9.820;2022-11-14T07:22:46;84.37;;;36.73;;
31786;SDS011;18356;52.380;9.820;2022-11-14T07:25:12;75.93;;;33.93;;
31786;SDS011;18356;52.380;9.820;2022-11-14T07:27:38;75.83;;;35.37;;
31786;SDS011;18356;52.380;9.820;2022-11-14T07:30:04;75.93;;;34.10;;
31786;SDS011;18356;52.380;9.820;2022-11-14T07:32:31;82.77;;;35.00;;
31786;SDS011;18356;52.380;9.820;2022-11-14T07:34:57;79.00;;;33.30;;
31786;SDS011;18356;52.380;9.820;2022-11-14T07:37:23;85.40;;;36.63;;
31786;SDS011;18356;52.380;9.820;2022-11-14T07:39:49;77.07;;;34.57;;
31786;SDS011;18356;52.380;9.820;2022-11-14T07:42:15;79.37;;;33.03;;
31786;SDS011;18356;52.380;9.820;2022-11-14T07:44:41;80.27;;;33.00;;
31786;SDS011;18356;52.380;9.820;2022-11-14T07:47:07;82.10;;;33.90;;
31786;SDS011;18356;52.380;9.820;2022-11-14T07:49:33;77.43;;;34.83;;
31786;SDS011;18356;52.380;9.820;2022-11-14T07:52:00;76.50;;;33.77;;
31786;SDS011;18356;52.380;9.820;2022-11-14T07:54:26;83.90;;;34.70;;
31786;SDS011;18356;52.380;9.820;2022-11-14T07:56:52;79.53;;;34.80;;
31786;SDS011;18356;52.380;9.820;2022-11-14T07:59:18;83.00;;;35.00;;
31786;SDS011;18356;52.380;9.820;2022-11-14T08:01:44;73.57;;;33.27;;
31786;SDS011;18356;52.380;9.820;2022-11-14T08:04:10;88.70;;;37.13;;
31786;SDS011;18356;52.380;9.820;2022-11-14T08:06:36;75.60;;;34.63;;
31786;SDS011;18356;52.380;9.820;2022-11-14T08:09:02;81.10;;;35.70;;
31786;SDS011;18356;52.380;9.820;2022-11-14T08:11:28;81.43;;;35.20;;
31786;SDS011;18356;52.380;9.820;2022-11-14T08:14:12;89.60;;;35.70;;
31786;SDS011;18356;52.380;9.820;2022-11-14T08:16:38;80.00;;;33.73;;
31786;SDS011;18356;52.380;9.820;2022-11-14T08:19:04;79.67;;;34.37;;
31786;SDS011;18356;52.380;9.820;2022-11-14T08:21:30;76.53;;;34.77;;
31786;SDS011;18356;52.380;9.820;2022-11-14T08:23:57;84.47;;;34.40;;
31786;SDS011;18356;52.380;9.820;2022-11-14T08:26:23;84.00;;;33.30;;
31786;SDS011;18356;52.380;9.820;2022-11-14T08:28:52;69.30;;;32.33;;
31786;SDS011;18356;52.380;9.820;2022-11-14T08:31:19;78.80;;;35.47;;
31786;SDS011;18356;52.380;9.820;2022-11-14T08:33:45;80.23;;;34.70;;
31786;SDS011;18356;52.380;9.820;2022-11-14T08:36:13;80.17;;;34.70;;
31786;SDS011;18356;52.380;9.820;2022-11-14T08:38:39;79.67;;;34.70;;
31786;SDS011;18356;52.380;9.820;2022-11-14T08:41:05;85.73;;;37.07;;
31786;SDS011;18356;52.380;9.820;2022-11-14T08:43:31;81.70;;;36.10;;
31786;SDS011;18356;52.380;9.820;2022-11-14T08:45:58;89.53;;;35.53;;
31786;SDS011;18356;52.380;9.820;2022-11-14T08:48:24;88.27;;;36.73;;
31786;SDS011;18356;52.380;9.820;2022-11-14T08:50:50;79.23;;;35.60;;
31786;SDS011;18356;52.380;9.820;2022-11-14T08:53:16;77.43;;;34.40;;
31786;SDS011;18356;52.380;9.820;2022-11-14T08:55:43;78.73;;;34.80;;
31786;SDS011;18356;52.380;9.820;2022-11-14T08:58:09;78.67;;;32.30;;
31786;SDS011;18356;52.380;9.820;2022-11-14T09:00:35;75.27;;;34.03;;
31786;SDS011;18356;52.380;9.820;2022-11-14T09:03:11;76.80;;;33.77;;
31786;SDS011;18356;52.380;9.820;2022-11-14T09:05:38;83.30;;;34.63;;
31786;SDS011;18356;52.380;9.820;2022-11-14T09:08:05;78.27;;;32.50;;
31786;SDS011;18356;52.380;9.820;2022-11-14T09:10:31;84.30;;;33.87;;
31786;SDS011;18356;52.380;9.820;2022-11-14T09:12:58;78.60;;;33.57;;
31786;SDS011;18356;52.380;9.820;2022-11-14T09:15:26;71.00;;;32.17;;
31786;SDS011;18356;52.380;9.820;2022-11-14T09:17:52;73.13;;;33.10;;
31786;SDS011;18356;52.380;9.820;2022-11-14T09:20:19;68.40;;;32.77;;
31786;SDS011;18356;52.380;9.820;2022-11-14T09:22:45;72.17;;;32.47;;
31786;SDS011;18356;52.380;9.820;2022-11-14T09:25:11;71.80;;;31.97;;
31786;SDS011;18356;52.380;9.820;2022-11-14T09:27:37;73.30;;;32.60;;
31786;SDS011;18356;52.380;9.820;2022-11-14T09:30:04;73.30;;;32.53;;
31786;SDS011;18356;52.380;9.820;2022-11-14T09:32:30;73.70;;;33.00;;
31786;SDS011;18356;52.380;9.820;2022-11-14T09:34:56;70.30;;;32.77;;
31786;SDS011;18356;52.380;9.820;2022-11-14T09:37:22;67.90;;;32.07;;
31786;SDS011;18356;52.380;9.820;2022-11-14T09:39:48;70.23;;;32.87;;
31786;SDS011;18356;52.380;9.820;2022-11-14T09:42:18;63.80;;;31.43;;
31786;SDS011;18356;52.380;9.820;2022-11-14T09:44:56;65.87;;;31.63;;
31786;SDS011;18356;52.380;9.820;2022-11-14T09:47:35;66.07;;;32.30;;
31786;SDS011;18356;52.380;9.820;2022-11-14T09:50:05;69.80;;;33.40;;
31786;SDS011;18356;52.380;9.820;2022-11-14T09:55:00;69.87;;;32.00;;
31786;SDS011;18356;52.380;9.820;2022-11-14T09:57:27;73.97;;;33.93;;
31786;SDS011;18356;52.380;9.820;2022-11-14T09:59:53;80.77;;;36.70;;
31786;SDS011;18356;52.380;9.820;2022-11-14T10:04:53;70.00;;;34.20;;
31786;SDS011;18356;52.380;9.820;2022-11-14T10:09:57;67.73;;;34.20;;
31786;SDS011;18356;52.380;9.820;2022-11-14T10:12:42;63.23;;;33.57;;
31786;SDS011;18356;52.380;9.820;2022-11-14T10:17:58;65.13;;;31.97;;
31786;SDS011;18356;52.380;9.820;2022-11-14T10:26:16;72.87;;;33.73;;
31786;SDS011;18356;52.380;9.820;2022-11-14T10:28:57;61.30;;;31.67;;
31786;SDS011;18356;52.380;9.820;2022-11-14T10:41:24;75.40;;;35.13;;
31786;SDS011;18356;52.380;9.820;2022-11-14T10:43:51;69.10;;;35.40;;
31786;SDS011;18356;52.380;9.820;2022-11-14T10:46:24;70.47;;;37.63;;
31786;SDS011;18356;52.380;9.820;2022-11-14T10:48:51;69.47;;;36.63;;
31786;SDS011;18356;52.380;9.820;2022-11-14T10:56:12;66.90;;;36.03;;
31786;SDS011;18356;52.380;9.820;2022-11-14T10:58:39;70.07;;;35.20;;
31786;SDS011;18356;52.380;9.820;2022-11-14T11:03:50;60.23;;;34.30;;
31786;SDS011;18356;52.380;9.820;2022-11-14T11:06:25;65.80;;;34.00;;
31786;SDS011;18356;52.380;9.820;2022-11-14T11:08:51;63.33;;;35.27;;
31786;SDS011;18356;52.380;9.820;2022-11-14T11:11:39;60.67;;;34.00;;
31786;SDS011;18356;52.380;9.820;2022-11-14T11:14:16;59.80;;;34.27;;
31786;SDS011;18356;52.380;9.820;2022-11-14T11:16:42;60.57;;;33.93;;
31786;SDS011;18356;52.380;9.820;2022-11-14T11:19:21;62.77;;;32.97;;
31786;SDS011;18356;52.380;9.820;2022-11-14T11:21:49;64.70;;;37.27;;
31786;SDS011;18356;52.380;9.820;2022-11-14T11:24:31;65.03;;;36.13;;
31786;SDS011;18356;52.380;9.820;2022-11-14T11:29:39;63.73;;;34.40;;
31786;SDS011;18356;52.380;9.820;2022-11-14T11:32:06;65.33;;;32.70;;
31786;SDS011;18356;52.380;9.820;2022-11-14T11:34:34;63.00;;;35.27;;
31786;SDS011;18356;52.380;9.820;2022-11-14T11:37:03;65.53;;;38.63;;
31786;SDS011;18356;52.380;9.820;2022-11-14T11:39:32;67.03;;;35.13;;
31786;SDS011;18356;52.380;9.820;2022-11-14T11:42:01;64.43;;;35.67;;
31786;SDS011;18356;52.380;9.820;2022-11-14T11:44:37;62.03;;;34.33;;
31786;SDS011;18356;52.380;9.820;2022-11-14T11:47:11;71.60;;;37.17;;
31786;SDS011;18356;52.380;9.820;2022-11-14T11:54:58;89.67;;;43.77;;
31786;SDS011;18356;52.380;9.820;2022-11-14T11:57:35;84.80;;;46.73;;
31786;SDS011;18356;52.380;9.820;2022-11-14T12:00:12;79.43;;;43.43;;
31786;SDS011;18356;52.380;9.820;2022-11-14T12:02:40;71.30;;;40.87;;
31786;SDS011;18356;52.380;9.820;2022-11-14T12:05:10;73.43;;;40.53;;
31786;SDS011;18356;52.380;9.820;2022-11-14T12:10:36;66.80;;;37.00;;
31786;SDS011;18356;52.380;9.820;2022-11-14T12:31:24;59.63;;;34.20;;
31786;SDS011;18356;52.380;9.820;2022-11-14T12:33:56;53.37;;;33.37;;
31786;SDS011;18356;52.380;9.820;2022-11-14T12:36:30;67.63;;;35.37;;
31786;SDS011;18356;52.380;9.820;2022-11-14T12:38:56;62.77;;;35.83;;
31786;SDS011;18356;52.380;9.820;2022-11-14T12:41:24;66.20;;;37.70;;
31786;SDS011;18356;52.380;9.820;2022-11-14T12:43:51;71.53;;;39.53;;
31786;SDS011;18356;52.380;9.820;2022-11-14T12:46:17;66.57;;;37.13;;
31786;SDS011;18356;52.380;9.820;2022-11-14T12:48:44;59.33;;;36.23;;
31786;SDS011;18356;52.380;9.820;2022-11-14T12:51:55;56.20;;;34.20;;
31786;SDS011;18356;52.380;9.820;2022-11-14T12:53:56;54.50;;;32.07;;
31786;SDS011;18356;52.380;9.820;2022-11-14T13:09:31;59.57;;;34.43;;
31786;SDS011;18356;52.380;9.820;2022-11-14T13:11:58;51.53;;;32.07;;
31786;SDS011;18356;52.380;9.820;2022-11-14T13:14:53;63.20;;;35.20;;
31786;SDS011;18356;52.380;9.820;2022-11-14T13:17:46;65.73;;;40.23;;
31786;SDS011;18356;52.380;9.820;2022-11-14T13:20:59;59.43;;;34.03;;
31786;SDS011;18356;52.380;9.820;2022-11-14T13:33:42;55.00;;;34.87;;
31786;SDS011;18356;52.380;9.820;2022-11-14T13:38:58;55.47;;;34.40;;
31786;SDS011;18356;52.380;9.820;2022-11-14T13:51:41;53.33;;;30.53;;
31786;SDS011;18356;52.380;9.820;2022-11-14T13:54:12;55.43;;;31.73;;
31786;SDS011;18356;52.380;9.820;2022-11-14T13:56:41;52.30;;;31.57;;
31786;SDS011;18356;52.380;9.820;2022-11-14T14:02:00;49.93;;;30.77;;
31786;SDS011;18356;52.380;9.820;2022-11-14T14:07:20;52.90;;;29.10;;
31786;SDS011;18356;52.380;9.820;2022-11-14T14:19:54;54.10;;;33.07;;
31786;SDS011;18356;52.380;9.820;2022-11-14T14:22:35;58.13;;;32.83;;
31786;SDS011;18356;52.380;9.820;2022-11-14T14:30:14;59.53;;;32.97;;
31786;SDS011;18356;52.380;9.820;2022-11-14T14:32:41;55.63;;;32.93;;
31786;SDS011;18356;52.380;9.820;2022-11-14T14:35:20;56.27;;;33.50;;
31786;SDS011;18356;52.380;9.820;2022-11-14T14:37:50;54.67;;;31.77;;
31786;SDS011;18356;52.380;9.820;2022-11-14T14:40:26;59.43;;;34.17;;
31786;SDS011;18356;52.380;9.820;2022-11-14T14:42:53;51.03;;;32.43;;
31786;SDS011;18356;52.380;9.820;2022-11-14T14:45:21;59.23;;;32.73;;
31786;SDS011;18356;52.380;9.820;2022-11-14T14:50:36;54.43;;;33.53;;
31786;SDS011;18356;52.380;9.820;2022-11-14T14:53:03;54.40;;;33.47;;
31786;SDS011;18356;52.380;9.820;2022-11-14T14:55:31;60.70;;;35.20;;
31786;SDS011;18356;52.380;9.820;2022-11-14T15:00:51;57.97;;;35.57;;
31786;SDS011;18356;52.380;9.820;2022-11-14T15:03:18;58.70;;;34.13;;
31786;SDS011;18356;52.380;9.820;2022-11-14T15:05:45;59.97;;;34.50;;
31786;SDS011;18356;52.380;9.820;2022-11-14T15:08:11;60.23;;;33.60;;
31786;SDS011;18356;52.380;9.820;2022-11-14T15:10:38;57.00;;;33.77;;
31786;SDS011;18356;52.380;9.820;2022-11-14T15:13:05;63.00;;;33.83;;
31786;SDS011;18356;52.380;9.820;2022-11-14T15:15:32;65.60;;;35.03;;
31786;SDS011;18356;52.380;9.820;2022-11-14T15:17:59;58.20;;;33.97;;
31786;SDS011;18356;52.380;9.820;2022-11-14T15:20:27;65.57;;;33.77;;
31786;SDS011;18356;52.380;9.820;2022-11-14T15:23:04;59.60;;;32.43;;
31786;SDS011;18356;52.380;9.820;2022-11-14T15:25:30;64.13;;;33.27;;
31786;SDS011;18356;52.380;9.820;2022-11-14T15:27:56;69.10;;;33.87;;
31786;SDS011;18356;52.380;9.820;2022-11-14T15:30:30;73.97;;;32.37;;
31786;SDS011;18356;52.380;9.820;2022-11-14T15:32:59;57.00;;;32.33;;
31786;SDS011;18356;52.380;9.820;2022-11-14T15:35:27;61.77;;;33.77;;
31786;SDS011;18356;52.380;9.820;2022-11-14T15:40:26;63.77;;;33.57;;
31786;SDS011;18356;52.380;9.820;2022-11-14T15:42:52;65.00;;;33.60;;
31786;SDS011;18356;52.380;9.820;2022-11-14T15:47:47;64.97;;;34.53;;
31786;SDS011;18356;52.380;9.820;2022-11-14T15:52:47;69.83;;;35.23;;
31786;SDS011;18356;52.380;9.820;2022-11-14T15:55:17;67.83;;;36.00;;
31786;SDS011;18356;52.380;9.820;2022-11-14T15:57:43;66.20;;;35.10;;
31786;SDS011;18356;52.380;9.820;2022-11-14T16:00:12;67.13;;;34.87;;
31786;SDS011;18356;52.380;9.820;2022-11-14T16:02:47;73.63;;;35.73;;
31786;SDS011;18356;52.380;9.820;2022-11-14T16:05:15;71.63;;;36.33;;
31786;SDS011;18356;52.380;9.820;2022-11-14T16:07:41;68.40;;;33.83;;
31786;SDS011;18356;52.380;9.820;2022-11-14T16:10:18;71.90;;;34.13;;
31786;SDS011;18356;52.380;9.820;2022-11-14T16:12:44;70.00;;;35.93;;
31786;SDS011;18356;52.380;9.820;2022-11-14T16:15:10;75.67;;;36.90;;
31786;SDS011;18356;52.380;9.820;2022-11-14T16:17:37;77.13;;;38.43;;
31786;SDS011;18356;52.380;9.820;2022-11-14T16:20:04;74.70;;;39.00;;
31786;SDS011;18356;52.380;9.820;2022-11-14T16:22:31;76.47;;;37.73;;
31786;SDS011;18356;52.380;9.820;2022-11-14T16:25:00;74.87;;;35.87;;
31786;SDS011;18356;52.380;9.820;2022-11-14T16:27:26;76.50;;;36.23;;
31786;SDS011;18356;52.380;9.820;2022-11-14T16:29:52;67.07;;;34.57;;
31786;SDS011;18356;52.380;9.820;2022-11-14T16:32:18;67.57;;;33.23;;
31786;SDS011;18356;52.380;9.820;2022-11-14T16:34:44;69.63;;;33.93;;
31786;SDS011;18356;52.380;9.820;2022-11-14T16:37:11;63.83;;;32.87;;
31786;SDS011;18356;52.380;9.820;2022-11-14T16:39:37;67.63;;;34.07;;
31786;SDS011;18356;52.380;9.820;2022-11-14T16:42:03;66.43;;;32.90;;
31786;SDS011;18356;52.380;9.820;2022-11-14T16:44:30;62.87;;;32.40;;
31786;SDS011;18356;52.380;9.820;2022-11-14T16:46:56;66.27;;;32.17;;